createdAt,value
2018-02-09T00:00:04.350Z,0
2018-02-09T00:05:02.544Z,1
2018-02-09T00:10:03.090Z,0
2018-02-09T00:15:02.537Z,0
2018-02-09T00:20:03.036Z,1
2018-02-09T00:25:02.671Z,0
2018-02-09T00:30:03.415Z,0
2018-02-09T00:35:03.042Z,1
2018-02-09T00:40:02.591Z,0
2018-02-09T00:45:03.189Z,0
2018-02-09T00:50:02.572Z,0
2018-02-09T00:55:03.052Z,1
2018-02-09T01:00:02.523Z,1
2018-02-09T01:05:02.841Z,0
2018-02-09T01:10:03.505Z,0
2018-02-09T01:15:02.975Z,0
2018-02-09T01:20:02.491Z,1
2018-02-09T01:25:02.972Z,0
2018-02-09T01:30:03.594Z,1
2018-02-09T01:35:03.142Z,1
2018-02-09T01:40:02.623Z,0
2018-02-09T01:45:03.108Z,1
2018-02-09T01:50:02.722Z,1
2018-02-09T01:55:03.220Z,1
2018-02-09T02:00:02.734Z,1
2018-02-09T02:05:03.354Z,1
2018-02-09T02:10:02.769Z,1
2018-02-09T02:15:03.235Z,1
2018-02-09T02:20:02.792Z,1
2018-02-09T02:25:03.281Z,0
2018-02-09T02:30:02.763Z,1
2018-02-09T02:35:02.493Z,1
2018-02-09T02:40:02.973Z,1
2018-02-09T02:45:02.492Z,1
2018-02-09T02:50:03.211Z,1
2018-02-09T02:55:02.744Z,1
2018-02-09T03:00:03.315Z,1
2018-02-09T03:05:02.784Z,1
2018-02-09T03:10:03.514Z,1
2018-02-09T03:15:03.025Z,1
2018-02-09T03:20:02.530Z,1
2018-02-09T03:25:03.101Z,1
2018-02-09T03:30:02.472Z,1
2018-02-09T03:35:03.158Z,1
2018-02-09T03:40:02.661Z,1
2018-02-09T03:45:03.111Z,1
2018-02-09T03:50:02.695Z,1
2018-02-09T03:55:03.274Z,1
2018-02-09T04:00:02.752Z,1
2018-02-09T04:05:03.418Z,1
2018-02-09T04:10:02.933Z,1
2018-02-09T04:15:03.419Z,1
2018-02-09T04:20:02.931Z,1
2018-02-09T04:25:02.564Z,1
2018-02-09T04:30:03.057Z,1
2018-02-09T04:35:02.500Z,1
2018-02-09T04:40:03.054Z,1
2018-02-09T04:45:02.583Z,1
2018-02-09T04:50:03.149Z,1
2018-02-09T04:55:02.535Z,1
2018-02-09T05:00:02.995Z,1
2018-02-09T05:05:03.433Z,1
2018-02-09T05:10:02.924Z,1
2018-02-09T05:15:03.377Z,1
2018-02-09T05:20:02.878Z,1
2018-02-09T05:25:03.379Z,1
2018-02-09T05:30:02.833Z,1
2018-02-09T05:35:03.346Z,1
2018-02-09T05:40:02.891Z,1
2018-02-09T05:45:03.360Z,1
2018-02-09T05:50:02.796Z,1
2018-02-09T05:55:03.431Z,1
2018-02-09T06:00:02.961Z,1
2018-02-09T06:05:02.439Z,1
2018-02-09T06:10:03.097Z,1
2018-02-09T06:15:02.530Z,1
2018-02-09T06:20:02.916Z,2
2018-02-09T06:25:03.440Z,3
2018-02-09T06:30:02.955Z,6
2018-02-09T06:35:03.607Z,11
2018-02-09T06:40:03.350Z,30
2018-02-09T06:45:02.843Z,46
2018-02-09T06:50:03.563Z,99
2018-02-09T06:55:03.051Z,271
2018-02-09T07:00:02.500Z,478
2018-02-09T07:05:03.128Z,591
2018-02-09T07:10:02.615Z,648
2018-02-09T07:15:03.105Z,675
2018-02-09T07:20:02.682Z,775
2018-02-09T07:25:03.407Z,868
2018-02-09T07:30:02.884Z,1000
2018-02-09T07:35:03.808Z,1000
2018-02-09T07:40:03.386Z,1000
2018-02-09T07:45:02.839Z,1000
2018-02-09T07:50:03.331Z,1000
2018-02-09T07:55:02.831Z,1000
2018-02-09T08:00:03.637Z,2000
2018-02-09T08:05:03.136Z,2000
2018-02-09T08:10:02.660Z,3000
2018-02-09T08:15:03.094Z,2000
2018-02-09T08:20:02.566Z,3000
2018-02-09T08:25:03.044Z,3000
2018-02-09T08:30:02.596Z,3000
2018-02-09T08:35:03.242Z,3000
2018-02-09T08:40:02.848Z,4000
2018-02-09T08:45:03.450Z,5000
2018-02-09T08:50:02.915Z,7000
2018-02-09T08:55:02.463Z,7000
2018-02-09T09:00:02.963Z,9000
2018-02-09T09:05:02.490Z,11000
2018-02-09T09:10:03.156Z,10000
2018-02-09T09:15:02.531Z,9000
2018-02-09T09:20:03.114Z,7000
2018-02-09T09:25:02.846Z,9000
2018-02-09T09:30:03.261Z,9000
2018-02-09T09:35:02.753Z,10000
2018-02-09T09:40:03.369Z,10000
2018-02-09T09:45:02.866Z,12000
2018-02-09T09:50:03.362Z,13000
2018-02-09T09:55:02.831Z,13000
2018-02-09T10:00:03.344Z,14000
2018-02-09T10:05:02.915Z,19000
2018-02-09T10:10:02.510Z,19000
2018-02-09T10:15:03.153Z,16000
2018-02-09T10:20:02.704Z,14000
2018-02-09T10:25:03.178Z,14000
2018-02-09T10:30:02.641Z,22000
2018-02-09T10:35:03.068Z,20000
2018-02-09T10:40:02.525Z,17000
2018-02-09T10:45:03.018Z,17000
2018-02-09T10:50:03.477Z,19000
2018-02-09T10:55:02.935Z,23000
2018-02-09T11:00:03.390Z,24000
2018-02-09T11:05:02.805Z,23000
2018-02-09T11:10:03.435Z,22000
2018-02-09T11:15:03.020Z,23000
2018-02-09T11:20:02.654Z,22000
2018-02-09T11:25:03.114Z,23000
2018-02-09T11:30:02.725Z,24000
2018-02-09T11:35:02.631Z,22000
2018-02-09T11:40:03.182Z,21000
2018-02-09T11:45:02.777Z,18000
2018-02-09T11:50:03.188Z,20000
2018-02-09T11:55:02.626Z,18000
2018-02-09T12:00:03.226Z,16000
2018-02-09T12:05:02.718Z,12000
2018-02-09T12:10:03.218Z,14000
2018-02-09T12:15:02.705Z,15000
2018-02-09T12:20:03.213Z,13000
2018-02-09T12:25:02.637Z,15000
2018-02-09T12:30:03.197Z,13000
2018-02-09T12:35:02.781Z,17000
2018-02-09T12:40:03.293Z,14000
2018-02-09T12:45:02.793Z,16000
2018-02-09T12:50:03.346Z,13000
2018-02-09T12:55:02.880Z,17000
2018-02-09T13:00:03.400Z,17000
2018-02-09T13:05:03.009Z,17000
2018-02-09T13:10:02.539Z,16000
2018-02-09T13:15:03.057Z,13000
2018-02-09T13:20:02.607Z,13000
2018-02-09T13:25:03.122Z,11000
2018-02-09T13:30:02.507Z,12000
2018-02-09T13:35:03.014Z,13000
2018-02-09T13:40:02.580Z,13000
2018-02-09T13:45:03.081Z,14000
2018-02-09T13:50:02.621Z,15000
2018-02-09T13:55:03.086Z,15000
2018-02-09T14:00:02.555Z,10000
2018-02-09T14:05:03.044Z,10000
2018-02-09T14:10:02.570Z,11000
2018-02-09T14:15:03.063Z,12000
2018-02-09T14:20:02.684Z,11000
2018-02-09T14:25:03.169Z,10000
2018-02-09T14:30:02.653Z,11000
2018-02-09T14:35:03.198Z,10000
2018-02-09T14:40:02.693Z,9000
2018-02-09T14:45:03.312Z,8000
2018-02-09T14:50:02.834Z,5000
2018-02-09T14:55:03.322Z,3000
2018-02-09T15:00:02.812Z,3000
2018-02-09T15:05:03.291Z,2000
2018-02-09T15:10:02.900Z,1000
2018-02-09T15:15:03.442Z,1000
2018-02-09T15:20:02.915Z,1000
2018-02-09T15:25:03.423Z,1000
2018-02-09T15:30:02.943Z,1000
2018-02-09T15:35:02.603Z,1000
2018-02-09T15:40:03.224Z,812
2018-02-09T15:45:03.151Z,745
2018-02-09T15:50:02.749Z,704
2018-02-09T15:55:03.147Z,667
2018-02-09T16:00:02.559Z,596
2018-02-09T16:05:03.033Z,480
2018-02-09T16:10:02.548Z,427
2018-02-09T16:15:03.038Z,393
2018-02-09T16:20:02.572Z,335
2018-02-09T16:25:03.115Z,259
2018-02-09T16:30:02.776Z,139
2018-02-09T16:35:03.265Z,78
2018-02-09T16:40:02.724Z,65
2018-02-09T16:45:03.189Z,42
2018-02-09T16:50:02.619Z,27
2018-02-09T16:55:03.083Z,16
2018-02-09T17:00:02.509Z,8
2018-02-09T17:05:03.006Z,4
2018-02-09T17:10:02.516Z,2
2018-02-09T17:15:03.072Z,1
2018-02-09T17:20:02.630Z,0
2018-02-09T17:25:03.059Z,0
2018-02-09T17:30:02.523Z,0
2018-02-09T17:35:03.053Z,0
2018-02-09T17:40:02.603Z,0
2018-02-09T17:45:03.118Z,0
2018-02-09T17:50:02.593Z,0
2018-02-09T17:55:03.041Z,0
2018-02-09T18:00:02.549Z,0
2018-02-09T18:05:03.282Z,0
2018-02-09T18:10:02.871Z,0
2018-02-09T18:15:03.413Z,0
2018-02-09T18:20:03.048Z,0
2018-02-09T18:25:02.511Z,0
2018-02-09T18:30:03.009Z,0
2018-02-09T18:35:02.541Z,0
2018-02-09T18:40:03.070Z,0
2018-02-09T18:45:02.538Z,0
2018-02-09T18:50:03.021Z,0
2018-02-09T18:55:02.513Z,0
2018-02-09T19:00:03.040Z,0
2018-02-09T19:05:02.513Z,0
2018-02-09T19:10:03.049Z,0
2018-02-09T19:15:03.406Z,0
2018-02-09T19:20:02.828Z,0
2018-02-09T19:25:03.352Z,0
2018-02-09T19:30:03.085Z,0
2018-02-09T19:35:02.524Z,0
2018-02-09T19:40:03.027Z,0
2018-02-09T19:45:02.571Z,0
2018-02-09T19:50:03.213Z,0
2018-02-09T19:55:02.923Z,0
2018-02-09T20:00:02.486Z,0
2018-02-09T20:05:03.023Z,0
2018-02-09T20:10:02.827Z,0
2018-02-09T20:15:03.348Z,0
2018-02-09T20:20:03.007Z,0
2018-02-09T20:25:02.518Z,0
2018-02-09T20:30:02.932Z,0
2018-02-09T20:35:03.476Z,0
2018-02-09T20:40:03.028Z,0
2018-02-09T20:45:03.470Z,0
2018-02-09T20:50:03.007Z,0
2018-02-09T20:55:02.497Z,0
2018-02-09T21:00:02.983Z,0
2018-02-09T21:05:02.500Z,0
2018-02-09T21:10:03.166Z,0
2018-02-09T21:15:02.578Z,0
2018-02-09T21:20:03.099Z,0
2018-02-09T21:25:02.592Z,0
2018-02-09T21:30:03.042Z,0
2018-02-09T21:35:02.579Z,0
2018-02-09T21:40:03.137Z,0
2018-02-09T21:45:02.565Z,0
2018-02-09T21:50:03.100Z,0
2018-02-09T21:55:02.586Z,0
2018-02-09T22:00:03.202Z,0
2018-02-09T22:05:02.715Z,0
2018-02-09T22:10:03.186Z,0
2018-02-09T22:15:02.593Z,0
2018-02-09T22:20:03.058Z,0
2018-02-09T22:25:02.516Z,0
2018-02-09T22:30:03.399Z,0
2018-02-09T22:35:02.955Z,0
2018-02-09T22:40:02.646Z,0
2018-02-09T22:45:03.148Z,0
2018-02-09T22:50:02.549Z,0
2018-02-09T22:55:03.072Z,0
2018-02-09T23:00:02.545Z,0
2018-02-09T23:05:02.979Z,0
2018-02-09T23:10:02.574Z,0
2018-02-09T23:15:03.094Z,0
2018-02-09T23:20:02.731Z,0
2018-02-09T23:25:03.270Z,0
2018-02-09T23:30:02.721Z,0
2018-02-09T23:35:03.154Z,0
2018-02-09T23:40:02.711Z,0
2018-02-09T23:45:03.107Z,0
2018-02-09T23:50:02.542Z,0
2018-02-09T23:55:02.964Z,0
